Home > Products > Valid Products > TAF

000
FTPA31 PHFO 211100 RRA
TAFHNL
TAF
PHNL 211141Z 2112/2218 05012G20KT P6SM VCSH SCT030 BKN045
     FM211800 05015G25KT P6SM FEW030 SCT045 BKN250
     FM220700 05012G20KT P6SM FEW030 BKN045=



000
FTPA31 PHFO 211100 RRA
TAFHNL
TAF
PHNL 211141Z 2112/2218 05012G20KT P6SM VCSH SCT030 BKN045
     FM211800 05015G25KT P6SM FEW030 SCT045 BKN250
     FM220700 05012G20KT P6SM FEW030 BKN045=



000
FTPA31 PHFO 210900 AAB
TAFHNL
TAF AMD
PHNL 210907Z 2109/2212 05012G20KT P6SM VCSH BKN035 OVC045
     FM211800 05015G25KT P6SM FEW030 BKN045=



000
FTPA31 PHFO 210900 AAB
TAFHNL
TAF AMD
PHNL 210907Z 2109/2212 05012G20KT P6SM VCSH BKN035 OVC045
     FM211800 05015G25KT P6SM FEW030 BKN045=



000
FTPA31 PHFO 210500 AAA
TAFHNL
TAF AMD
PHNL 210521Z 2105/2206 05015G25KT P6SM SCT030 BKN045 BKN250
     FM210800 05012G20KT P6SM BKN035 OVC045
     FM211800 05015G25KT P6SM FEW030 BKN045=



000
FTPA31 PHFO 210500 AAA
TAFHNL
TAF AMD
PHNL 210521Z 2105/2206 05015G25KT P6SM SCT030 BKN045 BKN250
     FM210800 05012G20KT P6SM BKN035 OVC045
     FM211800 05015G25KT P6SM FEW030 BKN045=



000
FTPA31 PHFO 210200 RRA
TAFHNL
TAF
PHNL 210221Z 2102/2206 05015G25KT P6SM SCT030 BKN045 BKN250
     FM210800 05015G21KT P6SM BKN030 OVC045
     FM211800 05015G25KT P6SM FEW030 BKN045=



000
FTPA31 PHFO 202300
TAFHNL
TAF
PHNL 202331Z 2100/2206 05015G25KT P6SM SCT030 BKN045 BKN250
     FM210800 05015G21KT P6SM BKN030 OVC045
     FM211800 05015G25KT P6SM FEW030 BKN045=



000
FTPA31 PHFO 202300
TAFHNL
TAF
PHNL 202331Z 2100/2206 05015G25KT P6SM SCT030 BKN045 BKN250
     FM210800 05015G21KT P6SM BKN030 OVC045
     FM211800 05015G25KT P6SM FEW030 BKN045=



000
FTPA31 PHFO 202000 RRB
TAFHNL
TAF AMD
PHNL 202031Z 2020/2124 06015G25KT P6SM FEW030 BKN045
     FM210700 06015KT P6SM VCSH BKN030 OVC045
     FM212100 06015G25KT P6SM FEW030 BKN045=



000
FTPA31 PHFO 202000 RRB
TAFHNL
TAF AMD
PHNL 202031Z 2020/2124 06015G25KT P6SM FEW030 BKN045
     FM210700 06015KT P6SM VCSH BKN030 OVC045
     FM212100 06015G25KT P6SM FEW030 BKN045=



000
FTPA31 PHFO 201700 RRA
TAFHNL
TAF
PHNL 201746Z 2018/2124 06008G18KT P6SM FEW030 BKN045
     FM202100 06015G25KT P6SM FEW030 BKN045
     FM210700 06015KT P6SM VCSH BKN030 OVC045=



000
FTPA31 PHFO 201700 RRA
TAFHNL
TAF
PHNL 201746Z 2018/2124 06008G18KT P6SM FEW030 BKN045
     FM202100 06015G25KT P6SM FEW030 BKN045
     FM210700 06015KT P6SM VCSH BKN030 OVC045=



000
FTPA31 PHFO 201400 AAA
TAFHNL
TAF AMD
PHNL 201441Z 2015/2118 06012KT P6SM VCSH FEW025 BKN040
     FM202000 05017G25KT P6SM VCSH FEW025 BKN045
     FM210600 05015KT P6SM VCSH FEW027 BKN045=



000
FTPA31 PHFO 201400 AAA
TAFHNL
TAF AMD
PHNL 201441Z 2015/2118 06012KT P6SM VCSH FEW025 BKN040
     FM202000 05017G25KT P6SM VCSH FEW025 BKN045
     FM210600 05015KT P6SM VCSH FEW027 BKN045=



000
FTPA31 PHFO 201100
TAFHNL
TAF
PHNL 201120Z 2012/2118 06012KT P6SM VCSH FEW025 BKN040
     FM202000 05017G25KT P6SM VCSH FEW025 BKN045
     FM210600 05015KT P6SM VCSH FEW027 BKN045=



000
FTPA31 PHFO 201100
TAFHNL
TAF
PHNL 201120Z 2012/2118 06012KT P6SM VCSH FEW025 BKN040
     FM202000 05017G25KT P6SM VCSH FEW025 BKN045
     FM210600 05015KT P6SM VCSH FEW027 BKN045=



000
FTPA31 PHFO 200800 AAA
TAFHNL
TAF AMD
PHNL 200826Z 2008/2112 06014KT P6SM VCSH FEW027 SCT040 BKN200
     FM202000 05017G26KT P6SM VCSH FEW027 SCT045 BKN250
     FM210400 05013G20KT P6SM VCSH FEW027 BKN045=



000
FTPA31 PHFO 200800 AAA
TAFHNL
TAF AMD
PHNL 200826Z 2008/2112 06014KT P6SM VCSH FEW027 SCT040 BKN200
     FM202000 05017G26KT P6SM VCSH FEW027 SCT045 BKN250
     FM210400 05013G20KT P6SM VCSH FEW027 BKN045=



000
FTPA31 PHFO 200500
TAFHNL
TAF
PHNL 200520Z 2006/2112 06014KT P6SM FEW027 SCT045 BKN200
     FM202000 05017G26KT P6SM VCSH FEW027 SCT045 BKN250
     FM210400 05013G20KT P6SM VCSH FEW027 BKN045=



000
FTPA31 PHFO 200500
TAFHNL
TAF
PHNL 200520Z 2006/2112 06014KT P6SM FEW027 SCT045 BKN200
     FM202000 05017G26KT P6SM VCSH FEW027 SCT045 BKN250
     FM210400 05013G20KT P6SM VCSH FEW027 BKN045=



000
FTPA31 PHFO 200300 AAA
TAFHNL
TAF AMD
PHNL 200305Z 2003/2106 05017G23KT P6SM FEW027 SCT045 BKN250
     FM200500 05012KT P6SM FEW027 SCT045 BKN250
     FM202000 05014G20KT P6SM FEW025 SCT045 BKN250=



000
FTPA31 PHFO 200300 AAA
TAFHNL
TAF AMD
PHNL 200305Z 2003/2106 05017G23KT P6SM FEW027 SCT045 BKN250
     FM200500 05012KT P6SM FEW027 SCT045 BKN250
     FM202000 05014G20KT P6SM FEW025 SCT045 BKN250=



000
FTPA31 PHFO 192300
TAFHNL
TAF
PHNL 192336Z 2000/2106 05017G23KT P6SM FEW027 SCT045 BKN250
     FM200500 05012KT P6SM FEW027 SCT045 BKN250
     FM202000 05014G20KT P6SM FEW025 SCT045 BKN250=



000
FTPA31 PHFO 192100 AAA
TAFHNL
TAF AMD
PHNL 192105Z 1921/2024 05017G23KT P6SM FEW027 SCT045 BKN250
     FM200500 05012KT P6SM FEW027 SCT045
     FM202000 05014G20KT P6SM FEW025 SCT045=



000
FTPA31 PHFO 192100 AAA
TAFHNL
TAF AMD
PHNL 192105Z 1921/2024 05017G23KT P6SM FEW027 SCT045 BKN250
     FM200500 05012KT P6SM FEW027 SCT045
     FM202000 05014G20KT P6SM FEW025 SCT045=



000
FTPA31 PHFO 191700
TAFHNL
TAF
PHNL 191738Z 1918/2024 05007KT P6SM FEW027 SCT040 OVC250
     FM192000 05017G23KT P6SM FEW027 SCT045 BKN250
     FM200500 05012KT P6SM FEW027 SCT045
     FM202000 05014G20KT P6SM FEW025 SCT045=



000
FTPA31 PHFO 191700
TAFHNL
TAF
PHNL 191738Z 1918/2024 05007KT P6SM FEW027 SCT040 OVC250
     FM192000 05017G23KT P6SM FEW027 SCT045 BKN250
     FM200500 05012KT P6SM FEW027 SCT045
     FM202000 05014G20KT P6SM FEW025 SCT045=



000
FTPA31 PHFO 191400 AAA
TAFHNL
TAF AMD
PHNL 191447Z 1915/2018 05007KT P6SM FEW027 SCT040 OVC250
     FM192000 05017G23KT P6SM FEW027 SCT045 BKN250
     FM200500 05012KT P6SM FEW027 SCT045=



000
FTPA31 PHFO 191400 AAA
TAFHNL
TAF AMD
PHNL 191447Z 1915/2018 05007KT P6SM FEW027 SCT040 OVC250
     FM192000 05017G23KT P6SM FEW027 SCT045 BKN250
     FM200500 05012KT P6SM FEW027 SCT045=



000
FTPA31 PHFO 191100
TAFHNL
TAF
PHNL 191120Z 1912/2018 05007KT P6SM FEW027 SCT040 OVC250
     FM192000 05017G23KT P6SM FEW027 SCT045 BKN250
     FM200500 05012KT P6SM FEW027 SCT045=



000
FTPA31 PHFO 191100
TAFHNL
TAF
PHNL 191120Z 1912/2018 05007KT P6SM FEW027 SCT040 OVC250
     FM192000 05017G23KT P6SM FEW027 SCT045 BKN250
     FM200500 05012KT P6SM FEW027 SCT045=



000
FTPA31 PHFO 190800 AAA
TAFHNL
TAF AMD
PHNL 190843Z 1909/2012 05007KT P6SM FEW027 SCT045
     FM192000 05017G23KT P6SM FEW027 SCT045
     FM200500 05012KT P6SM FEW027 SCT045=



000
FTPA31 PHFO 190800 AAA
TAFHNL
TAF AMD
PHNL 190843Z 1909/2012 05007KT P6SM FEW027 SCT045
     FM192000 05017G23KT P6SM FEW027 SCT045
     FM200500 05012KT P6SM FEW027 SCT045=



000
FTPA31 PHFO 190500
TAFHNL
TAF
PHNL 190520Z 1906/2012 05010KT P6SM VCSH FEW027 BKN040
     FM192000 05012G22KT P6SM FEW027 SCT040
     FM200500 05012KT P6SM VCSH FEW027 BKN040=



000
FTPA31 PHFO 190300 AAA
TAFHNL
TAF AMD
PHNL 190304Z 1903/2006 05012G22KT P6SM SCT030 BKN050
     FM190600 05012KT P6SM SCT030 BKN050
     FM192000 05012G22KT P6SM SCT030 BKN050=



000
FTPA31 PHFO 190300 AAA
TAFHNL
TAF AMD
PHNL 190304Z 1903/2006 05012G22KT P6SM SCT030 BKN050
     FM190600 05012KT P6SM SCT030 BKN050
     FM192000 05012G22KT P6SM SCT030 BKN050=



000
FTPA31 PHFO 182300 RRA
TAFHNL
TAF
PHNL 182342Z 1900/2006 05012G22KT P6SM SCT030 BKN050
     FM190600 05012KT P6SM SCT030 BKN050
     FM192000 05012G22KT P6SM SCT030 BKN050=



000
FTPA31 PHFO 182300 RRA
TAFHNL
TAF
PHNL 182342Z 1900/2006 05012G22KT P6SM SCT030 BKN050
     FM190600 05012KT P6SM SCT030 BKN050
     FM192000 05012G22KT P6SM SCT030 BKN050=



000
FTPA31 PHFO 182100 AAA
TAFHNL
TAF AMD
PHNL 182106Z 1821/1924 05012G22KT P6SM SCT030 BKN050
     FM190600 05012KT P6SM SCT030 BKN050=



000
FTPA31 PHFO 182100 AAA
TAFHNL
TAF AMD
PHNL 182106Z 1821/1924 05012G22KT P6SM SCT030 BKN050
     FM190600 05012KT P6SM SCT030 BKN050=



000
FTPA31 PHFO 181700
TAFHNL
TAF
PHNL 181739Z 1818/1924 05008KT P6SM SCT030 BKN050
     FM182000 05012G22KT P6SM SCT030 BKN050
     FM190600 05012KT P6SM SCT030 BKN050=



000
FTPA31 PHFO 181700
TAFHNL
TAF
PHNL 181739Z 1818/1924 05008KT P6SM SCT030 BKN050
     FM182000 05012G22KT P6SM SCT030 BKN050
     FM190600 05012KT P6SM SCT030 BKN050=



000
FTPA31 PHFO 181500 AAA
TAFHNL
TAF AMD
PHNL 181505Z 1815/1918 05008KT P6SM SCT030 BKN050
     FM182000 05012G22KT P6SM SCT030 BKN050
     FM190600 05012KT P6SM SCT030 BKN050=



000
FTPA31 PHFO 181500 AAA
TAFHNL
TAF AMD
PHNL 181505Z 1815/1918 05008KT P6SM SCT030 BKN050
     FM182000 05012G22KT P6SM SCT030 BKN050
     FM190600 05012KT P6SM SCT030 BKN050=



    US Dept of Commerce
    National Oceanic and Atmospheric Administration
    National Weather Service
    1325 East West Highway
    Silver Spring, MD 20910
    Page Author: NWS Internet Services Team
Disclaimer
Information Quality
Credits
Glossary
Privacy Policy
Freedom of Information Act (FOIA)
About Us
Career Opportunities